sensor_id;sensor_type;location;lat;lon;timestamp;temperature;humidity
15922;DHT22;8060;50.948;3.146;2024-03-23T00:52:34;9.00;99.90
15922;DHT22;8060;50.948;3.146;2024-03-23T00:55:01;9.00;99.90
15922;DHT22;8060;50.948;3.146;2024-03-23T00:57:27;9.00;99.90
15922;DHT22;8060;50.948;3.146;2024-03-23T00:59:54;9.00;99.90
15922;DHT22;8060;50.948;3.146;2024-03-23T01:02:20;9.00;99.90
15922;DHT22;8060;50.948;3.146;2024-03-23T01:04:48;9.00;99.90
15922;DHT22;8060;50.948;3.146;2024-03-23T01:07:14;9.00;99.90
15922;DHT22;8060;50.948;3.146;2024-03-23T01:09:42;9.00;99.90
15922;DHT22;8060;50.948;3.146;2024-03-23T01:12:08;9.00;99.90
15922;DHT22;8060;50.948;3.146;2024-03-23T01:14:35;9.00;99.90
15922;DHT22;8060;50.948;3.146;2024-03-23T01:17:01;9.00;99.90
15922;DHT22;8060;50.948;3.146;2024-03-23T01:19:29;9.00;99.90
15922;DHT22;8060;50.948;3.146;2024-03-23T01:21:55;9.00;99.90
15922;DHT22;8060;50.948;3.146;2024-03-23T01:24:22;9.00;99.90
15922;DHT22;8060;50.948;3.146;2024-03-23T01:26:49;9.00;99.90
15922;DHT22;8060;50.948;3.146;2024-03-23T01:29:16;9.00;99.90
15922;DHT22;8060;50.948;3.146;2024-03-23T01:31:43;9.00;99.90
15922;DHT22;8060;50.948;3.146;2024-03-23T01:34:10;9.00;99.90
15922;DHT22;8060;50.948;3.146;2024-03-23T01:36:36;9.00;99.90
15922;DHT22;8060;50.948;3.146;2024-03-23T01:39:03;9.00;99.90
15922;DHT22;8060;50.948;3.146;2024-03-23T01:41:29;9.00;99.90
15922;DHT22;8060;50.948;3.146;2024-03-23T01:43:58;9.00;99.90
15922;DHT22;8060;50.948;3.146;2024-03-23T01:46:28;9.00;99.90
15922;DHT22;8060;50.948;3.146;2024-03-23T01:48:56;9.00;99.90
15922;DHT22;8060;50.948;3.146;2024-03-23T01:51:22;9.00;99.90
15922;DHT22;8060;50.948;3.146;2024-03-23T01:53:49;9.00;99.90
15922;DHT22;8060;50.948;3.146;2024-03-23T01:56:16;8.90;99.90
15922;DHT22;8060;50.948;3.146;2024-03-23T01:58:43;8.90;99.90
15922;DHT22;8060;50.948;3.146;2024-03-23T02:01:12;8.90;99.90
15922;DHT22;8060;50.948;3.146;2024-03-23T02:03:39;8.90;99.90
15922;DHT22;8060;50.948;3.146;2024-03-23T02:06:05;8.90;99.90
15922;DHT22;8060;50.948;3.146;2024-03-23T02:08:33;8.90;99.90
15922;DHT22;8060;50.948;3.146;2024-03-23T02:11:00;8.90;99.90
15922;DHT22;8060;50.948;3.146;2024-03-23T02:13:27;8.80;99.90
15922;DHT22;8060;50.948;3.146;2024-03-23T02:15:53;8.90;99.90
15922;DHT22;8060;50.948;3.146;2024-03-23T02:18:22;8.80;99.90
15922;DHT22;8060;50.948;3.146;2024-03-23T02:20:48;8.80;99.90
15922;DHT22;8060;50.948;3.146;2024-03-23T02:23:17;8.80;99.90
15922;DHT22;8060;50.948;3.146;2024-03-23T02:25:44;8.70;99.90
15922;DHT22;8060;50.948;3.146;2024-03-23T02:28:11;8.70;99.90
15922;DHT22;8060;50.948;3.146;2024-03-23T02:30:37;8.60;99.90
15922;DHT22;8060;50.948;3.146;2024-03-23T02:33:04;8.60;99.90
15922;DHT22;8060;50.948;3.146;2024-03-23T02:35:30;8.60;99.90
15922;DHT22;8060;50.948;3.146;2024-03-23T02:37:57;8.60;99.90
15922;DHT22;8060;50.948;3.146;2024-03-23T02:40:25;8.60;99.90
15922;DHT22;8060;50.948;3.146;2024-03-23T02:42:53;8.60;99.90
15922;DHT22;8060;50.948;3.146;2024-03-23T02:45:19;8.60;99.90
15922;DHT22;8060;50.948;3.146;2024-03-23T02:47:46;8.60;99.90
15922;DHT22;8060;50.948;3.146;2024-03-23T02:50:12;8.60;99.90
15922;DHT22;8060;50.948;3.146;2024-03-23T02:52:41;8.60;99.90
15922;DHT22;8060;50.948;3.146;2024-03-23T02:55:07;8.50;99.90
15922;DHT22;8060;50.948;3.146;2024-03-23T02:57:36;8.50;99.90
15922;DHT22;8060;50.948;3.146;2024-03-23T03:00:02;8.50;99.90
15922;DHT22;8060;50.948;3.146;2024-03-23T03:02:31;8.40;99.90
15922;DHT22;8060;50.948;3.146;2024-03-23T03:04:57;8.40;99.90
15922;DHT22;8060;50.948;3.146;2024-03-23T03:07:24;8.30;99.90
15922;DHT22;8060;50.948;3.146;2024-03-23T03:09:50;8.30;99.90
15922;DHT22;8060;50.948;3.146;2024-03-23T03:12:17;8.20;99.90
15922;DHT22;8060;50.948;3.146;2024-03-23T03:14:44;8.20;99.90
15922;DHT22;8060;50.948;3.146;2024-03-23T03:17:11;8.20;99.90
15922;DHT22;8060;50.948;3.146;2024-03-23T03:19:38;8.20;99.90
15922;DHT22;8060;50.948;3.146;2024-03-23T03:22:05;8.20;99.90
15922;DHT22;8060;50.948;3.146;2024-03-23T03:24:31;8.10;99.90
15922;DHT22;8060;50.948;3.146;2024-03-23T03:26:58;8.10;99.90
15922;DHT22;8060;50.948;3.146;2024-03-23T03:29:24;8.10;99.90
15922;DHT22;8060;50.948;3.146;2024-03-23T03:31:53;8.10;99.90
15922;DHT22;8060;50.948;3.146;2024-03-23T03:34:19;8.10;99.90
15922;DHT22;8060;50.948;3.146;2024-03-23T03:36:46;8.10;99.90
15922;DHT22;8060;50.948;3.146;2024-03-23T03:39:12;8.00;99.90
15922;DHT22;8060;50.948;3.146;2024-03-23T03:41:39;8.00;99.90
15922;DHT22;8060;50.948;3.146;2024-03-23T03:44:06;8.00;99.90
15922;DHT22;8060;50.948;3.146;2024-03-23T03:46:33;8.00;99.90
15922;DHT22;8060;50.948;3.146;2024-03-23T03:49:00;8.00;99.90
15922;DHT22;8060;50.948;3.146;2024-03-23T03:51:27;8.00;99.90
15922;DHT22;8060;50.948;3.146;2024-03-23T03:53:54;8.00;99.90
15922;DHT22;8060;50.948;3.146;2024-03-23T03:56:20;8.00;99.90
15922;DHT22;8060;50.948;3.146;2024-03-23T03:58:48;8.00;99.90
15922;DHT22;8060;50.948;3.146;2024-03-23T04:01:14;8.00;99.90
15922;DHT22;8060;50.948;3.146;2024-03-23T04:03:42;8.00;99.90
15922;DHT22;8060;50.948;3.146;2024-03-23T04:06:10;8.00;99.90
15922;DHT22;8060;50.948;3.146;2024-03-23T04:08:37;8.00;99.90
15922;DHT22;8060;50.948;3.146;2024-03-23T04:11:03;8.00;99.90
15922;DHT22;8060;50.948;3.146;2024-03-23T04:13:31;8.00;99.90
15922;DHT22;8060;50.948;3.146;2024-03-23T04:15:57;7.90;99.90
15922;DHT22;8060;50.948;3.146;2024-03-23T04:18:24;7.80;99.90
15922;DHT22;8060;50.948;3.146;2024-03-23T04:20:51;7.80;99.90
15922;DHT22;8060;50.948;3.146;2024-03-23T04:23:19;7.80;99.90
15922;DHT22;8060;50.948;3.146;2024-03-23T04:25:47;7.70;99.90
15922;DHT22;8060;50.948;3.146;2024-03-23T04:28:14;7.70;99.90
15922;DHT22;8060;50.948;3.146;2024-03-23T04:30:40;7.70;99.90
15922;DHT22;8060;50.948;3.146;2024-03-23T04:33:07;7.80;99.90
15922;DHT22;8060;50.948;3.146;2024-03-23T04:35:33;7.70;99.90
15922;DHT22;8060;50.948;3.146;2024-03-23T04:38:00;7.70;99.90
15922;DHT22;8060;50.948;3.146;2024-03-23T04:40:29;7.70;99.90
15922;DHT22;8060;50.948;3.146;2024-03-23T04:42:56;7.70;99.90
15922;DHT22;8060;50.948;3.146;2024-03-23T04:45:23;7.60;99.90
15922;DHT22;8060;50.948;3.146;2024-03-23T04:47:50;7.70;99.90
15922;DHT22;8060;50.948;3.146;2024-03-23T04:50:17;7.60;99.90
15922;DHT22;8060;50.948;3.146;2024-03-23T04:52:44;7.60;99.90
15922;DHT22;8060;50.948;3.146;2024-03-23T04:55:11;7.60;99.90
15922;DHT22;8060;50.948;3.146;2024-03-23T04:57:41;7.50;99.90
15922;DHT22;8060;50.948;3.146;2024-03-23T05:00:08;7.50;99.90
15922;DHT22;8060;50.948;3.146;2024-03-23T05:02:44;7.50;99.90
15922;DHT22;8060;50.948;3.146;2024-03-23T05:05:12;7.50;99.90
15922;DHT22;8060;50.948;3.146;2024-03-23T05:07:38;7.40;99.90
15922;DHT22;8060;50.948;3.146;2024-03-23T05:10:05;7.50;99.90
15922;DHT22;8060;50.948;3.146;2024-03-23T05:12:36;7.50;99.90
15922;DHT22;8060;50.948;3.146;2024-03-23T05:15:05;7.40;99.90
15922;DHT22;8060;50.948;3.146;2024-03-23T05:17:31;7.50;99.90
15922;DHT22;8060;50.948;3.146;2024-03-23T05:19:59;7.50;99.90
15922;DHT22;8060;50.948;3.146;2024-03-23T05:22:25;7.40;99.90
15922;DHT22;8060;50.948;3.146;2024-03-23T05:24:53;7.40;99.90
15922;DHT22;8060;50.948;3.146;2024-03-23T05:27:19;7.30;99.90
15922;DHT22;8060;50.948;3.146;2024-03-23T05:29:46;7.30;99.90
15922;DHT22;8060;50.948;3.146;2024-03-23T05:32:14;7.30;99.90
15922;DHT22;8060;50.948;3.146;2024-03-23T05:34:41;7.30;99.90
15922;DHT22;8060;50.948;3.146;2024-03-23T05:37:07;7.20;99.90
15922;DHT22;8060;50.948;3.146;2024-03-23T05:39:35;7.20;99.90
15922;DHT22;8060;50.948;3.146;2024-03-23T05:42:01;7.20;99.90
15922;DHT22;8060;50.948;3.146;2024-03-23T05:44:28;7.20;99.90
15922;DHT22;8060;50.948;3.146;2024-03-23T05:46:54;7.10;99.90
15922;DHT22;8060;50.948;3.146;2024-03-23T05:49:22;7.10;99.90
15922;DHT22;8060;50.948;3.146;2024-03-23T05:51:49;7.10;99.90
15922;DHT22;8060;50.948;3.146;2024-03-23T05:54:16;7.00;99.90
15922;DHT22;8060;50.948;3.146;2024-03-23T05:56:42;7.00;99.90
15922;DHT22;8060;50.948;3.146;2024-03-23T05:59:09;7.00;99.90
15922;DHT22;8060;50.948;3.146;2024-03-23T06:01:35;7.00;99.90
15922;DHT22;8060;50.948;3.146;2024-03-23T06:04:02;7.00;99.90
15922;DHT22;8060;50.948;3.146;2024-03-23T06:06:30;7.00;99.90
15922;DHT22;8060;50.948;3.146;2024-03-23T06:08:57;7.00;99.90
15922;DHT22;8060;50.948;3.146;2024-03-23T06:11:23;7.00;99.90
15922;DHT22;8060;50.948;3.146;2024-03-23T06:13:52;7.10;99.90
15922;DHT22;8060;50.948;3.146;2024-03-23T06:16:18;7.00;99.90
15922;DHT22;8060;50.948;3.146;2024-03-23T06:18:49;7.00;99.90
15922;DHT22;8060;50.948;3.146;2024-03-23T06:21:15;7.00;99.90
15922;DHT22;8060;50.948;3.146;2024-03-23T06:23:44;7.00;99.90
15922;DHT22;8060;50.948;3.146;2024-03-23T06:26:16;6.90;99.90
15922;DHT22;8060;50.948;3.146;2024-03-23T06:28:43;6.90;99.90
15922;DHT22;8060;50.948;3.146;2024-03-23T06:31:10;6.90;99.90
15922;DHT22;8060;50.948;3.146;2024-03-23T06:33:37;7.00;99.90
15922;DHT22;8060;50.948;3.146;2024-03-23T06:36:04;7.00;99.90
15922;DHT22;8060;50.948;3.146;2024-03-23T06:38:31;7.10;99.90
15922;DHT22;8060;50.948;3.146;2024-03-23T06:41:02;7.10;99.90
15922;DHT22;8060;50.948;3.146;2024-03-23T06:43:29;7.20;99.90
15922;DHT22;8060;50.948;3.146;2024-03-23T06:45:56;7.20;99.90
15922;DHT22;8060;50.948;3.146;2024-03-23T06:48:23;7.20;99.90
15922;DHT22;8060;50.948;3.146;2024-03-23T06:50:49;7.20;99.90
15922;DHT22;8060;50.948;3.146;2024-03-23T06:53:16;7.20;99.90
15922;DHT22;8060;50.948;3.146;2024-03-23T06:55:50;7.20;99.90
15922;DHT22;8060;50.948;3.146;2024-03-23T06:58:20;7.30;99.90
15922;DHT22;8060;50.948;3.146;2024-03-23T07:00:46;7.30;99.90
15922;DHT22;8060;50.948;3.146;2024-03-23T07:03:16;7.50;99.90
15922;DHT22;8060;50.948;3.146;2024-03-23T07:05:43;7.50;99.90
15922;DHT22;8060;50.948;3.146;2024-03-23T07:08:12;7.50;99.90
15922;DHT22;8060;50.948;3.146;2024-03-23T07:10:39;7.60;99.90
15922;DHT22;8060;50.948;3.146;2024-03-23T07:13:06;7.60;99.90
15922;DHT22;8060;50.948;3.146;2024-03-23T07:15:34;7.70;99.90
15922;DHT22;8060;50.948;3.146;2024-03-23T07:18:01;7.80;99.90
15922;DHT22;8060;50.948;3.146;2024-03-23T07:20:27;7.90;99.90
15922;DHT22;8060;50.948;3.146;2024-03-23T07:22:56;7.90;99.90
15922;DHT22;8060;50.948;3.146;2024-03-23T07:25:22;7.90;99.90
15922;DHT22;8060;50.948;3.146;2024-03-23T07:27:52;8.00;99.90
15922;DHT22;8060;50.948;3.146;2024-03-23T07:30:18;8.10;99.90
15922;DHT22;8060;50.948;3.146;2024-03-23T07:32:47;8.10;99.90
15922;DHT22;8060;50.948;3.146;2024-03-23T07:35:13;8.20;99.90
15922;DHT22;8060;50.948;3.146;2024-03-23T07:37:41;8.30;99.90
15922;DHT22;8060;50.948;3.146;2024-03-23T07:40:08;8.40;99.90
15922;DHT22;8060;50.948;3.146;2024-03-23T07:42:35;8.40;99.90
15922;DHT22;8060;50.948;3.146;2024-03-23T07:45:02;8.50;99.90
15922;DHT22;8060;50.948;3.146;2024-03-23T07:47:29;8.60;99.90
15922;DHT22;8060;50.948;3.146;2024-03-23T07:49:56;8.60;99.90
15922;DHT22;8060;50.948;3.146;2024-03-23T07:52:23;8.70;99.90
15922;DHT22;8060;50.948;3.146;2024-03-23T07:54:49;8.70;99.90
15922;DHT22;8060;50.948;3.146;2024-03-23T07:57:16;8.80;99.90
15922;DHT22;8060;50.948;3.146;2024-03-23T07:59:42;8.90;99.90
15922;DHT22;8060;50.948;3.146;2024-03-23T08:02:10;8.90;99.90
15922;DHT22;8060;50.948;3.146;2024-03-23T08:04:36;9.00;99.90
15922;DHT22;8060;50.948;3.146;2024-03-23T08:07:05;9.10;99.90
15922;DHT22;8060;50.948;3.146;2024-03-23T08:09:31;9.10;99.90
15922;DHT22;8060;50.948;3.146;2024-03-23T08:11:58;9.20;99.90
15922;DHT22;8060;50.948;3.146;2024-03-23T08:14:24;9.30;99.90
15922;DHT22;8060;50.948;3.146;2024-03-23T08:16:51;9.40;99.90
15922;DHT22;8060;50.948;3.146;2024-03-23T08:19:17;9.50;99.90
15922;DHT22;8060;50.948;3.146;2024-03-23T08:21:44;9.60;99.90
15922;DHT22;8060;50.948;3.146;2024-03-23T08:24:12;9.80;99.90
15922;DHT22;8060;50.948;3.146;2024-03-23T08:26:39;9.80;99.90
15922;DHT22;8060;50.948;3.146;2024-03-23T08:29:05;9.80;99.90
15922;DHT22;8060;50.948;3.146;2024-03-23T08:31:33;9.80;99.90
15922;DHT22;8060;50.948;3.146;2024-03-23T08:34:00;9.90;99.90
15922;DHT22;8060;50.948;3.146;2024-03-23T08:36:28;9.80;99.90
15922;DHT22;8060;50.948;3.146;2024-03-23T08:38:56;9.80;99.90
15922;DHT22;8060;50.948;3.146;2024-03-23T08:41:25;9.90;99.90
15922;DHT22;8060;50.948;3.146;2024-03-23T08:43:51;9.80;99.90
15922;DHT22;8060;50.948;3.146;2024-03-23T08:46:18;9.90;99.90
15922;DHT22;8060;50.948;3.146;2024-03-23T08:48:46;10.00;99.90
15922;DHT22;8060;50.948;3.146;2024-03-23T08:51:15;10.00;99.90
15922;DHT22;8060;50.948;3.146;2024-03-23T08:53:42;10.00;99.90
15922;DHT22;8060;50.948;3.146;2024-03-23T08:56:10;10.10;99.90
15922;DHT22;8060;50.948;3.146;2024-03-23T08:58:38;9.90;99.90
15922;DHT22;8060;50.948;3.146;2024-03-23T09:01:07;9.70;99.90
15922;DHT22;8060;50.948;3.146;2024-03-23T09:03:34;9.70;99.90
15922;DHT22;8060;50.948;3.146;2024-03-23T09:06:02;9.80;99.90
15922;DHT22;8060;50.948;3.146;2024-03-23T09:08:32;10.00;99.90
15922;DHT22;8060;50.948;3.146;2024-03-23T09:11:03;10.20;99.90
15922;DHT22;8060;50.948;3.146;2024-03-23T09:13:32;10.40;99.90
15922;DHT22;8060;50.948;3.146;2024-03-23T09:16:00;10.50;99.90
15922;DHT22;8060;50.948;3.146;2024-03-23T09:18:27;10.60;99.90
15922;DHT22;8060;50.948;3.146;2024-03-23T09:20:54;10.80;99.90
15922;DHT22;8060;50.948;3.146;2024-03-23T09:23:21;10.90;99.90
15922;DHT22;8060;50.948;3.146;2024-03-23T09:25:49;11.00;99.90
15922;DHT22;8060;50.948;3.146;2024-03-23T09:28:15;11.00;99.90
15922;DHT22;8060;50.948;3.146;2024-03-23T09:30:42;11.00;99.90
15922;DHT22;8060;50.948;3.146;2024-03-23T09:33:10;11.10;99.90
15922;DHT22;8060;50.948;3.146;2024-03-23T09:35:38;11.30;99.90
15922;DHT22;8060;50.948;3.146;2024-03-23T09:38:04;11.50;99.90
15922;DHT22;8060;50.948;3.146;2024-03-23T09:40:33;11.70;99.90
15922;DHT22;8060;50.948;3.146;2024-03-23T09:42:59;12.00;99.90
15922;DHT22;8060;50.948;3.146;2024-03-23T09:45:27;12.20;99.90
15922;DHT22;8060;50.948;3.146;2024-03-23T09:47:55;12.20;99.90
15922;DHT22;8060;50.948;3.146;2024-03-23T09:50:24;12.10;99.90
15922;DHT22;8060;50.948;3.146;2024-03-23T09:52:50;12.00;99.90
15922;DHT22;8060;50.948;3.146;2024-03-23T09:55:17;12.10;99.90
15922;DHT22;8060;50.948;3.146;2024-03-23T09:57:43;12.20;99.90
15922;DHT22;8060;50.948;3.146;2024-03-23T10:00:12;12.20;99.90
15922;DHT22;8060;50.948;3.146;2024-03-23T10:02:38;12.40;99.90
15922;DHT22;8060;50.948;3.146;2024-03-23T10:05:20;12.60;99.90
15922;DHT22;8060;50.948;3.146;2024-03-23T10:07:49;12.80;99.90
15922;DHT22;8060;50.948;3.146;2024-03-23T10:10:16;12.90;99.90
15922;DHT22;8060;50.948;3.146;2024-03-23T10:12:45;12.80;99.90
15922;DHT22;8060;50.948;3.146;2024-03-23T10:15:18;12.70;99.90
15922;DHT22;8060;50.948;3.146;2024-03-23T10:17:44;12.30;99.90
15922;DHT22;8060;50.948;3.146;2024-03-23T10:20:11;12.10;99.90
15922;DHT22;8060;50.948;3.146;2024-03-23T10:22:38;11.70;99.90
15922;DHT22;8060;50.948;3.146;2024-03-23T10:25:11;11.50;99.90
15922;DHT22;8060;50.948;3.146;2024-03-23T10:27:37;11.30;99.90
15922;DHT22;8060;50.948;3.146;2024-03-23T10:30:09;11.30;99.90
15922;DHT22;8060;50.948;3.146;2024-03-23T10:32:35;11.60;99.90
15922;DHT22;8060;50.948;3.146;2024-03-23T10:35:16;11.80;99.90
15922;DHT22;8060;50.948;3.146;2024-03-23T10:37:42;11.70;99.90
15922;DHT22;8060;50.948;3.146;2024-03-23T10:40:12;11.70;99.90
15922;DHT22;8060;50.948;3.146;2024-03-23T10:42:38;11.50;99.90
15922;DHT22;8060;50.948;3.146;2024-03-23T10:45:07;11.50;99.90
15922;DHT22;8060;50.948;3.146;2024-03-23T10:47:35;11.50;99.90
15922;DHT22;8060;50.948;3.146;2024-03-23T10:50:03;11.60;99.90
15922;DHT22;8060;50.948;3.146;2024-03-23T10:52:31;11.70;99.90
15922;DHT22;8060;50.948;3.146;2024-03-23T10:54:59;12.10;99.90
15922;DHT22;8060;50.948;3.146;2024-03-23T10:57:34;12.50;99.90
15922;DHT22;8060;50.948;3.146;2024-03-23T11:00:04;12.70;99.90
15922;DHT22;8060;50.948;3.146;2024-03-23T11:02:31;12.90;99.90
15922;DHT22;8060;50.948;3.146;2024-03-23T11:04:58;13.30;99.90
15922;DHT22;8060;50.948;3.146;2024-03-23T11:07:31;13.60;99.90
15922;DHT22;8060;50.948;3.146;2024-03-23T11:09:58;13.90;99.90
15922;DHT22;8060;50.948;3.146;2024-03-23T11:12:30;14.20;99.90
15922;DHT22;8060;50.948;3.146;2024-03-23T11:15:02;14.50;99.90
15922;DHT22;8060;50.948;3.146;2024-03-23T11:17:30;14.70;99.90
15922;DHT22;8060;50.948;3.146;2024-03-23T11:19:57;14.40;99.90
15922;DHT22;8060;50.948;3.146;2024-03-23T11:22:43;14.40;99.90
15922;DHT22;8060;50.948;3.146;2024-03-23T11:25:14;14.50;99.90
15922;DHT22;8060;50.948;3.146;2024-03-23T11:27:43;14.20;99.90
15922;DHT22;8060;50.948;3.146;2024-03-23T11:30:17;14.10;99.90
15922;DHT22;8060;50.948;3.146;2024-03-23T11:32:45;14.00;99.90
15922;DHT22;8060;50.948;3.146;2024-03-23T11:35:26;13.70;99.90
15922;DHT22;8060;50.948;3.146;2024-03-23T11:38:03;14.00;99.90
15922;DHT22;8060;50.948;3.146;2024-03-23T11:40:30;14.40;99.90
15922;DHT22;8060;50.948;3.146;2024-03-23T11:42:59;14.50;99.90
15922;DHT22;8060;50.948;3.146;2024-03-23T11:45:26;14.30;99.90
15922;DHT22;8060;50.948;3.146;2024-03-23T11:48:06;14.30;99.90
15922;DHT22;8060;50.948;3.146;2024-03-23T11:50:35;14.00;99.90
15922;DHT22;8060;50.948;3.146;2024-03-23T11:53:13;13.60;99.90
15922;DHT22;8060;50.948;3.146;2024-03-23T11:55:42;13.00;99.90
15922;DHT22;8060;50.948;3.146;2024-03-23T11:58:10;12.80;99.90
15922;DHT22;8060;50.948;3.146;2024-03-23T12:00:40;13.10;99.90
15922;DHT22;8060;50.948;3.146;2024-03-23T12:03:07;13.60;99.90
15922;DHT22;8060;50.948;3.146;2024-03-23T12:05:36;14.00;99.90
15922;DHT22;8060;50.948;3.146;2024-03-23T12:08:16;14.40;99.90
15922;DHT22;8060;50.948;3.146;2024-03-23T12:10:46;14.90;99.90
15922;DHT22;8060;50.948;3.146;2024-03-23T12:13:17;15.20;99.90
15922;DHT22;8060;50.948;3.146;2024-03-23T12:15:45;15.40;99.90
15922;DHT22;8060;50.948;3.146;2024-03-23T12:18:11;15.10;99.90
15922;DHT22;8060;50.948;3.146;2024-03-23T12:20:39;14.90;99.90
15922;DHT22;8060;50.948;3.146;2024-03-23T12:23:06;14.80;99.90
15922;DHT22;8060;50.948;3.146;2024-03-23T12:25:34;14.90;99.90
15922;DHT22;8060;50.948;3.146;2024-03-23T12:28:01;15.00;99.90
15922;DHT22;8060;50.948;3.146;2024-03-23T12:30:29;14.90;99.90
15922;DHT22;8060;50.948;3.146;2024-03-23T12:32:55;14.50;99.90
15922;DHT22;8060;50.948;3.146;2024-03-23T12:35:23;14.30;99.90
15922;DHT22;8060;50.948;3.146;2024-03-23T12:37:49;14.00;99.90
15922;DHT22;8060;50.948;3.146;2024-03-23T12:40:16;14.20;99.90
15922;DHT22;8060;50.948;3.146;2024-03-23T12:42:42;14.40;99.90
15922;DHT22;8060;50.948;3.146;2024-03-23T12:45:09;14.60;99.90
15922;DHT22;8060;50.948;3.146;2024-03-23T12:47:36;15.40;99.90
15922;DHT22;8060;50.948;3.146;2024-03-23T12:50:04;16.00;99.90
15922;DHT22;8060;50.948;3.146;2024-03-23T12:52:31;16.70;99.90
15922;DHT22;8060;50.948;3.146;2024-03-23T12:54:59;17.10;99.90
15922;DHT22;8060;50.948;3.146;2024-03-23T12:57:25;17.30;99.90
15922;DHT22;8060;50.948;3.146;2024-03-23T12:59:53;17.60;99.90
15922;DHT22;8060;50.948;3.146;2024-03-23T13:02:19;17.70;99.90
15922;DHT22;8060;50.948;3.146;2024-03-23T13:04:50;17.70;99.90
15922;DHT22;8060;50.948;3.146;2024-03-23T13:07:16;17.20;99.90
15922;DHT22;8060;50.948;3.146;2024-03-23T13:09:43;16.20;99.90
15922;DHT22;8060;50.948;3.146;2024-03-23T13:12:10;15.40;99.90
15922;DHT22;8060;50.948;3.146;2024-03-23T13:14:37;15.10;99.90
15922;DHT22;8060;50.948;3.146;2024-03-23T13:17:04;15.30;99.90
15922;DHT22;8060;50.948;3.146;2024-03-23T13:19:31;15.80;99.90
15922;DHT22;8060;50.948;3.146;2024-03-23T13:21:59;16.30;99.90
15922;DHT22;8060;50.948;3.146;2024-03-23T13:24:27;16.10;99.90
15922;DHT22;8060;50.948;3.146;2024-03-23T13:26:55;15.70;99.90
15922;DHT22;8060;50.948;3.146;2024-03-23T13:29:22;15.50;99.90
15922;DHT22;8060;50.948;3.146;2024-03-23T13:31:50;15.00;99.90
15922;DHT22;8060;50.948;3.146;2024-03-23T13:34:17;14.50;99.90
15922;DHT22;8060;50.948;3.146;2024-03-23T13:36:45;14.60;99.90
15922;DHT22;8060;50.948;3.146;2024-03-23T13:39:14;14.40;99.90
15922;DHT22;8060;50.948;3.146;2024-03-23T13:41:43;14.30;99.90
15922;DHT22;8060;50.948;3.146;2024-03-23T13:44:09;14.10;99.90
15922;DHT22;8060;50.948;3.146;2024-03-23T13:46:37;13.80;99.90
15922;DHT22;8060;50.948;3.146;2024-03-23T13:49:03;13.40;99.90
15922;DHT22;8060;50.948;3.146;2024-03-23T13:51:31;13.20;99.90
15922;DHT22;8060;50.948;3.146;2024-03-23T13:53:57;13.20;99.90
15922;DHT22;8060;50.948;3.146;2024-03-23T13:56:28;13.20;99.90
15922;DHT22;8060;50.948;3.146;2024-03-23T13:58:55;13.40;99.90
15922;DHT22;8060;50.948;3.146;2024-03-23T14:01:22;13.30;99.90
15922;DHT22;8060;50.948;3.146;2024-03-23T14:03:48;13.20;99.90
15922;DHT22;8060;50.948;3.146;2024-03-23T14:06:16;13.20;99.90
15922;DHT22;8060;50.948;3.146;2024-03-23T14:08:42;13.60;99.90
15922;DHT22;8060;50.948;3.146;2024-03-23T14:11:09;14.00;99.90
15922;DHT22;8060;50.948;3.146;2024-03-23T14:13:37;14.30;99.90
15922;DHT22;8060;50.948;3.146;2024-03-23T14:16:06;14.20;99.90
15922;DHT22;8060;50.948;3.146;2024-03-23T14:18:32;14.20;99.90
15922;DHT22;8060;50.948;3.146;2024-03-23T14:21:00;14.50;99.90
15922;DHT22;8060;50.948;3.146;2024-03-23T14:23:27;14.80;99.90
15922;DHT22;8060;50.948;3.146;2024-03-23T14:25:55;15.10;99.90
15922;DHT22;8060;50.948;3.146;2024-03-23T14:28:22;15.10;99.90
15922;DHT22;8060;50.948;3.146;2024-03-23T14:30:51;15.30;99.90
15922;DHT22;8060;50.948;3.146;2024-03-23T14:33:18;15.10;99.90
15922;DHT22;8060;50.948;3.146;2024-03-23T14:35:52;15.00;99.90
15922;DHT22;8060;50.948;3.146;2024-03-23T14:38:20;15.10;99.90
15922;DHT22;8060;50.948;3.146;2024-03-23T14:40:46;14.70;99.90
15922;DHT22;8060;50.948;3.146;2024-03-23T14:43:13;14.60;99.90
15922;DHT22;8060;50.948;3.146;2024-03-23T14:45:49;14.40;99.90
15922;DHT22;8060;50.948;3.146;2024-03-23T14:48:34;14.40;99.90
15922;DHT22;8060;50.948;3.146;2024-03-23T14:51:01;14.50;99.90
15922;DHT22;8060;50.948;3.146;2024-03-23T14:53:30;14.50;99.90
15922;DHT22;8060;50.948;3.146;2024-03-23T14:55:56;14.50;99.90
15922;DHT22;8060;50.948;3.146;2024-03-23T14:58:25;14.50;99.90
15922;DHT22;8060;50.948;3.146;2024-03-23T15:00:51;14.60;99.90
15922;DHT22;8060;50.948;3.146;2024-03-23T15:03:19;14.80;99.90
15922;DHT22;8060;50.948;3.146;2024-03-23T15:05:53;14.70;99.90
15922;DHT22;8060;50.948;3.146;2024-03-23T15:08:21;14.60;99.90
15922;DHT22;8060;50.948;3.146;2024-03-23T15:10:48;14.30;99.90
15922;DHT22;8060;50.948;3.146;2024-03-23T15:13:15;14.10;99.90
15922;DHT22;8060;50.948;3.146;2024-03-23T15:15:41;13.80;99.90
15922;DHT22;8060;50.948;3.146;2024-03-23T15:18:10;13.60;99.90
15922;DHT22;8060;50.948;3.146;2024-03-23T15:20:38;13.30;99.90
15922;DHT22;8060;50.948;3.146;2024-03-23T15:23:07;13.30;99.90
15922;DHT22;8060;50.948;3.146;2024-03-23T15:25:33;13.10;99.90
15922;DHT22;8060;50.948;3.146;2024-03-23T15:28:00;13.10;99.90
15922;DHT22;8060;50.948;3.146;2024-03-23T15:30:27;12.90;99.90
15922;DHT22;8060;50.948;3.146;2024-03-23T15:32:55;12.90;99.90
15922;DHT22;8060;50.948;3.146;2024-03-23T15:35:21;12.90;99.90
15922;DHT22;8060;50.948;3.146;2024-03-23T15:37:49;12.80;99.90
15922;DHT22;8060;50.948;3.146;2024-03-23T15:40:17;12.90;99.90
15922;DHT22;8060;50.948;3.146;2024-03-23T15:42:44;12.80;99.90
15922;DHT22;8060;50.948;3.146;2024-03-23T15:45:10;12.70;99.90
15922;DHT22;8060;50.948;3.146;2024-03-23T15:47:38;12.60;99.90
15922;DHT22;8060;50.948;3.146;2024-03-23T15:50:05;12.60;99.90
15922;DHT22;8060;50.948;3.146;2024-03-23T15:52:35;12.70;99.90
15922;DHT22;8060;50.948;3.146;2024-03-23T15:55:02;12.70;99.90
15922;DHT22;8060;50.948;3.146;2024-03-23T15:57:34;12.70;99.90
15922;DHT22;8060;50.948;3.146;2024-03-23T16:00:00;12.70;99.90
15922;DHT22;8060;50.948;3.146;2024-03-23T16:02:28;12.60;99.90
15922;DHT22;8060;50.948;3.146;2024-03-23T16:04:54;12.60;99.90
15922;DHT22;8060;50.948;3.146;2024-03-23T16:07:24;12.80;99.90
15922;DHT22;8060;50.948;3.146;2024-03-23T16:09:50;12.90;99.90
15922;DHT22;8060;50.948;3.146;2024-03-23T16:12:17;12.60;99.90
15922;DHT22;8060;50.948;3.146;2024-03-23T16:14:45;12.60;99.90
15922;DHT22;8060;50.948;3.146;2024-03-23T16:17:12;12.60;99.90
15922;DHT22;8060;50.948;3.146;2024-03-23T16:19:38;12.50;99.90
15922;DHT22;8060;50.948;3.146;2024-03-23T16:22:05;12.50;99.90
15922;DHT22;8060;50.948;3.146;2024-03-23T16:24:31;12.40;99.90
15922;DHT22;8060;50.948;3.146;2024-03-23T16:26:58;12.30;99.90
15922;DHT22;8060;50.948;3.146;2024-03-23T16:29:24;12.20;99.90
15922;DHT22;8060;50.948;3.146;2024-03-23T16:31:53;12.20;99.90
15922;DHT22;8060;50.948;3.146;2024-03-23T16:34:20;12.10;99.90
15922;DHT22;8060;50.948;3.146;2024-03-23T16:36:47;12.10;99.90
15922;DHT22;8060;50.948;3.146;2024-03-23T16:39:13;12.10;99.90
15922;DHT22;8060;50.948;3.146;2024-03-23T16:41:41;12.00;99.90
15922;DHT22;8060;50.948;3.146;2024-03-23T16:44:07;11.80;99.90
15922;DHT22;8060;50.948;3.146;2024-03-23T16:46:34;11.50;99.90
15922;DHT22;8060;50.948;3.146;2024-03-23T16:49:02;11.50;99.90